Time;durP1;ratioP1;P1;durP2;ratioP2;P2;SDS_P1;SDS_P2;PMS_P1;PMS_P2;Temp;Humidity;BMP_temperature;BMP_pressure;BME280_temperature;BME280_humidity;BME280_pressure;Samples;Min_cycle;Max_cycle;Signal;HPM_P1;HPM_P2
2023/07/28 00:02:51;;;;;;;2.50;1.70;;;;;;;;;;5051888;22;20230;-28
2023/07/28 00:05:19;;;;;;;2.47;2.03;;;;;;;;;;5031185;28;20235;-29
2023/07/28 00:07:53;;;;;;;3.43;2.20;;;;;;;;;;5026654;28;20245;-28
2023/07/28 00:10:21;;;;;;;2.13;1.93;;;;;;;;;;5030322;28;20361;-28
2023/07/28 00:12:49;;;;;;;2.63;2.10;;;;;;;;;;5007358;28;20231;-28
2023/07/28 00:15:21;;;;;;;1.97;1.87;;;;;;;;;;5027543;28;20632;-27
2023/07/28 00:17:50;;;;;;;3.20;2.00;;;;;;;;;;5032280;28;20210;-27
2023/07/28 00:20:20;;;;;;;2.67;1.83;;;;;;;;;;4998487;28;20236;-28
2023/07/28 00:22:56;;;;;;;3.60;2.00;;;;;;;;;;5031407;28;20207;-26
2023/07/28 00:25:24;;;;;;;2.50;2.23;;;;;;;;;;5021438;28;20234;-29
2023/07/28 00:28:01;;;;;;;3.07;1.93;;;;;;;;;;4999163;28;20282;-30
2023/07/28 00:30:29;;;;;;;3.13;2.07;;;;;;;;;;5017327;28;20289;-30
2023/07/28 00:33:00;;;;;;;3.47;2.53;;;;;;;;;;5015020;28;20219;-28
2023/07/28 00:35:35;;;;;;;5.60;2.80;;;;;;;;;;5014836;28;20203;-27
2023/07/28 00:38:03;;;;;;;3.90;2.30;;;;;;;;;;5022096;28;20206;-29
2023/07/28 00:40:33;;;;;;;6.77;2.20;;;;;;;;;;5018446;28;20289;-31
2023/07/28 00:43:04;;;;;;;2.70;2.00;;;;;;;;;;5008318;28;20219;-28
2023/07/28 00:45:35;;;;;;;2.57;2.30;;;;;;;;;;5014541;28;20207;-29
2023/07/28 00:48:13;;;;;;;3.80;3.10;;;;;;;;;;5012086;28;20317;-31
2023/07/28 00:50:40;;;;;;;3.20;2.40;;;;;;;;;;4997585;28;20285;-28
2023/07/28 00:53:15;;;;;;;2.30;2.10;;;;;;;;;;5013888;28;20215;-29
2023/07/28 00:55:46;;;;;;;2.27;2.07;;;;;;;;;;5014936;28;20642;-30
2023/07/28 00:58:18;;;;;;;3.47;2.03;;;;;;;;;;5004990;28;20203;-28
2023/07/28 01:00:52;;;;;;;3.00;2.23;;;;;;;;;;5013301;28;20218;-28
2023/07/28 01:03:33;;;;;;;2.20;2.03;;;;;;;;;;5008528;28;20219;-26
2023/07/28 01:06:21;;;;;;;5.77;2.33;;;;;;;;;;5014462;28;20211;-27
2023/07/28 01:09:00;;;;;;;2.47;2.03;;;;;;;;;;5014742;28;20246;-28
2023/07/28 01:11:37;;;;;;;2.60;2.10;;;;;;;;;;5007488;28;20227;-28
2023/07/28 01:14:14;;;;;;;1.87;1.77;;;;;;;;;;5014977;28;20246;-27
2023/07/28 01:17:05;;;;;;;2.43;2.20;;;;;;;;;;5030103;28;20206;-28
2023/07/28 01:19:58;;;;;;;2.23;2.00;;;;;;;;;;5035114;28;20222;-30
2023/07/28 01:22:52;;;;;;;2.30;2.17;;;;;;;;;;5005954;28;20215;-27
2023/07/28 01:25:30;;;;;;;2.37;2.10;;;;;;;;;;5019022;28;20202;-31
2023/07/28 01:28:27;;;;;;;1.97;1.87;;;;;;;;;;5008584;28;20211;-28
2023/07/28 01:31:17;;;;;;;2.27;2.07;;;;;;;;;;5013934;28;20265;-28
2023/07/28 01:55:34;;;;;;;2.23;1.90;;;;;;;;;;5004842;28;20227;-31
2023/07/28 01:58:43;;;;;;;2.87;1.87;;;;;;;;;;5025647;28;20210;-28
2023/07/28 02:07:34;;;;;;;4.50;2.30;;;;;;;;;;4993116;28;20207;-28
2023/07/28 02:13:50;;;;;;;;;;;;;;;;;;;;;
2023/07/28 02:17:01;;;;;;;3.07;1.90;;;;;;;;;;5014346;28;20199;-27
2023/07/28 02:19:47;;;;;;;3.03;1.90;;;;;;;;;;5003237;28;20270;-28
2023/07/28 02:29:14;;;;;;;5.57;2.67;;;;;;;;;;4967126;28;20238;-28
2023/07/28 02:35:31;;;;;;;2.43;1.70;;;;;;;;;;5009909;28;20230;-29
2023/07/28 02:38:42;;;;;;;2.40;2.20;;;;;;;;;;4998050;28;20279;-30
2023/07/28 02:41:39;;;;;;;5.13;2.30;;;;;;;;;;4998784;28;20230;-28
2023/07/28 02:44:36;;;;;;;2.07;1.97;;;;;;;;;;4999139;28;20219;-28
2023/07/28 02:47:23;;;;;;;4.70;2.63;;;;;;;;;;5004117;28;20208;-29
2023/07/28 02:55:59;;;;;;;2.73;2.00;;;;;;;;;;5000230;28;20740;-26
2023/07/28 02:58:41;;;;;;;2.37;1.97;;;;;;;;;;5004491;28;20242;-26
2023/07/28 03:01:36;;;;;;;2.07;1.97;;;;;;;;;;4997587;28;20207;-29
2023/07/28 03:04:11;;;;;;;3.77;1.80;;;;;;;;;;5010118;28;20204;-27
2023/07/28 03:06:47;;;;;;;1.93;1.83;;;;;;;;;;4998490;28;20674;-27
2023/07/28 03:09:26;;;;;;;2.27;2.07;;;;;;;;;;5005153;28;20219;-29
2023/07/28 03:12:06;;;;;;;2.10;2.00;;;;;;;;;;5007204;28;20294;-31
2023/07/28 03:14:35;;;;;;;1.70;1.60;;;;;;;;;;5005305;28;20237;-31
2023/07/28 03:17:08;;;;;;;2.23;2.00;;;;;;;;;;5007992;28;20242;-28
2023/07/28 03:19:40;;;;;;;1.90;1.80;;;;;;;;;;5007095;28;20227;-28
2023/07/28 03:22:17;;;;;;;2.43;1.70;;;;;;;;;;5001726;28;20199;-30
2023/07/28 03:24:57;;;;;;;3.90;2.00;;;;;;;;;;5012383;28;20209;-30
2023/07/28 03:27:27;;;;;;;3.37;1.90;;;;;;;;;;5008669;28;20294;-29
2023/07/28 03:29:57;;;;;;;1.77;1.67;;;;;;;;;;5006438;28;20401;-26
2023/07/28 03:32:30;;;;;;;2.07;1.90;;;;;;;;;;5005973;28;20200;-26
2023/07/28 03:35:02;;;;;;;2.33;1.70;;;;;;;;;;5011111;28;20253;-28
2023/07/28 03:37:29;;;;;;;2.20;2.00;;;;;;;;;;4994289;28;20208;-27
2023/07/28 03:39:56;;;;;;;2.17;1.67;;;;;;;;;;5001728;28;20242;-27
2023/07/28 03:42:25;;;;;;;1.90;1.80;;;;;;;;;;4998754;28;20220;-31
2023/07/28 03:44:53;;;;;;;2.00;1.50;;;;;;;;;;4991670;28;20204;-30
2023/07/28 03:47:21;;;;;;;1.70;1.60;;;;;;;;;;5010976;28;20200;-27
2023/07/28 03:49:59;;;;;;;1.77;1.67;;;;;;;;;;5011356;28;20227;-27
2023/07/28 03:52:33;;;;;;;2.17;1.40;;;;;;;;;;4998072;28;20215;-28
2023/07/28 03:55:30;;;;;;;1.67;1.57;;;;;;;;;;4992773;28;20236;-30
2023/07/28 03:58:09;;;;;;;2.67;1.60;;;;;;;;;;5003212;28;20207;-29
2023/07/28 04:00:46;;;;;;;2.33;1.50;;;;;;;;;;5000478;28;20212;-30
2023/07/28 04:03:19;;;;;;;1.60;1.50;;;;;;;;;;4993061;28;20234;-28
2023/07/28 04:05:47;;;;;;;1.60;1.50;;;;;;;;;;4993653;28;20219;-31
2023/07/28 04:08:15;;;;;;;1.97;1.70;;;;;;;;;;4998525;28;20717;-28
2023/07/28 04:10:42;;;;;;;1.63;1.53;;;;;;;;;;5008189;28;20211;-29
2023/07/28 04:13:14;;;;;;;2.00;1.90;;;;;;;;;;5003652;28;20203;-28
2023/07/28 04:15:42;;;;;;;2.60;1.97;;;;;;;;;;5016930;28;20211;-28
2023/07/28 04:18:24;;;;;;;1.70;1.60;;;;;;;;;;5016231;28;20231;-30
2023/07/28 04:20:53;;;;;;;3.57;1.80;;;;;;;;;;5015183;28;20223;-27
2023/07/28 04:23:22;;;;;;;2.13;1.73;;;;;;;;;;5011651;28;20219;-28
2023/07/28 04:25:56;;;;;;;1.77;1.67;;;;;;;;;;4995689;28;20212;-27
2023/07/28 04:28:24;;;;;;;2.23;1.53;;;;;;;;;;5006631;28;20680;-29
2023/07/28 04:30:55;;;;;;;1.80;1.70;;;;;;;;;;5014903;28;20207;-29
2023/07/28 04:33:25;;;;;;;3.23;2.03;;;;;;;;;;5015737;28;20211;-29
2023/07/28 04:35:53;;;;;;;1.93;1.83;;;;;;;;;;5002423;28;20263;-28
2023/07/28 04:38:21;;;;;;;1.73;1.63;;;;;;;;;;5001410;28;20196;-31
2023/07/28 04:40:49;;;;;;;2.30;2.10;;;;;;;;;;5009491;28;20214;-29
2023/07/28 04:43:16;;;;;;;2.57;1.90;;;;;;;;;;5010141;28;20214;-30
2023/07/28 04:45:55;;;;;;;2.80;2.23;;;;;;;;;;4995564;28;20268;-30
2023/07/28 04:48:27;;;;;;;3.27;1.90;;;;;;;;;;4995603;28;20608;-28
2023/07/28 04:51:05;;;;;;;1.80;1.70;;;;;;;;;;5002334;28;20221;-29
2023/07/28 04:53:32;;;;;;;2.17;1.97;;;;;;;;;;5008772;28;20578;-31
2023/07/28 04:55:59;;;;;;;1.83;1.70;;;;;;;;;;4994116;28;20224;-30
2023/07/28 04:58:32;;;;;;;1.80;1.70;;;;;;;;;;5005494;28;20224;-28
2023/07/28 05:01:08;;;;;;;2.20;1.93;;;;;;;;;;4995361;28;20196;-28
2023/07/28 05:03:40;;;;;;;1.90;1.80;;;;;;;;;;4998489;28;20200;-31
2023/07/28 05:06:15;;;;;;;2.00;1.90;;;;;;;;;;4998925;28;20211;-27
2023/07/28 05:08:56;;;;;;;1.80;1.70;;;;;;;;;;5006970;28;20307;-27
2023/07/28 05:11:31;;;;;;;2.63;2.10;;;;;;;;;;4995791;28;20212;-27
2023/07/28 05:13:59;;;;;;;2.10;1.90;;;;;;;;;;5005920;28;20308;-27
2023/07/28 05:16:28;;;;;;;2.27;1.70;;;;;;;;;;5005640;28;20271;-28
2023/07/28 05:19:01;;;;;;;3.83;2.50;;;;;;;;;;5014803;28;20230;-26
2023/07/28 05:21:32;;;;;;;3.70;2.20;;;;;;;;;;5011406;28;20211;-30
2023/07/28 05:23:59;;;;;;;4.00;2.20;;;;;;;;;;5002285;28;20210;-28
2023/07/28 05:26:26;;;;;;;1.90;1.70;;;;;;;;;;4995512;28;20243;-27
2023/07/28 05:28:54;;;;;;;2.07;1.90;;;;;;;;;;5004881;28;20223;-28
2023/07/28 05:31:21;;;;;;;2.30;2.10;;;;;;;;;;5009173;28;20211;-28
2023/07/28 05:33:53;;;;;;;2.27;2.07;;;;;;;;;;4994630;28;20208;-28
2023/07/28 05:36:29;;;;;;;2.27;2.07;;;;;;;;;;4997215;28;20313;-29
2023/07/28 05:39:03;;;;;;;3.17;2.30;;;;;;;;;;5003707;28;20223;-28
2023/07/28 05:41:32;;;;;;;2.30;2.00;;;;;;;;;;4998555;28;20290;-29
2023/07/28 05:44:00;;;;;;;4.47;2.37;;;;;;;;;;5007472;28;20306;-30
2023/07/28 05:46:30;;;;;;;2.00;1.80;;;;;;;;;;5002153;28;20289;-27
2023/07/28 05:48:59;;;;;;;2.50;2.17;;;;;;;;;;4994174;28;20274;-26
2023/07/28 05:51:27;;;;;;;3.03;2.07;;;;;;;;;;5008764;28;20303;-28
2023/07/28 05:53:56;;;;;;;2.23;2.03;;;;;;;;;;5003806;28;20263;-30
2023/07/28 05:56:23;;;;;;;2.27;2.17;;;;;;;;;;4993434;28;20223;-26
2023/07/28 05:58:50;;;;;;;4.93;2.20;;;;;;;;;;5009129;28;20314;-30
2023/07/28 06:01:18;;;;;;;3.67;2.27;;;;;;;;;;5255044;23;20267;-28
2023/07/28 06:03:46;;;;;;;5.57;2.50;;;;;;;;;;5072006;28;20215;-27
2023/07/28 06:06:14;;;;;;;2.93;2.13;;;;;;;;;;5062357;28;20211;-29
2023/07/28 06:08:44;;;;;;;2.87;2.27;;;;;;;;;;5061837;28;20225;-28
2023/07/28 06:11:11;;;;;;;2.33;2.13;;;;;;;;;;5070712;28;20210;-28
2023/07/28 06:13:39;;;;;;;2.53;2.17;;;;;;;;;;5060981;28;20296;-29
2023/07/28 06:16:06;;;;;;;2.50;2.10;;;;;;;;;;5072216;28;20215;-29
2023/07/28 06:18:33;;;;;;;2.17;2.00;;;;;;;;;;5073254;28;20229;-28
2023/07/28 06:21:01;;;;;;;3.07;2.10;;;;;;;;;;5072248;28;20566;-29
2023/07/28 06:23:30;;;;;;;3.80;2.20;;;;;;;;;;5075082;28;20426;-28
2023/07/28 06:25:57;;;;;;;2.10;1.90;;;;;;;;;;5071692;28;20205;-29
2023/07/28 06:28:24;;;;;;;4.40;2.60;;;;;;;;;;5066786;28;20197;-28
2023/07/28 06:30:55;;;;;;;2.10;1.90;;;;;;;;;;5069182;28;20212;-29
2023/07/28 06:33:23;;;;;;;5.30;1.90;;;;;;;;;;5060942;28;20206;-30
2023/07/28 06:35:52;;;;;;;3.87;2.57;;;;;;;;;;5069081;28;20225;-31
2023/07/28 06:38:22;;;;;;;3.10;2.60;;;;;;;;;;5072452;28;20263;-29
2023/07/28 06:40:57;;;;;;;4.37;2.30;;;;;;;;;;5068204;28;20431;-30
2023/07/28 06:43:24;;;;;;;2.60;2.40;;;;;;;;;;5060662;28;20291;-27
2023/07/28 06:45:52;;;;;;;4.37;2.40;;;;;;;;;;5078118;28;20231;-31
2023/07/28 06:48:19;;;;;;;2.83;2.20;;;;;;;;;;5072441;28;20209;-29
2023/07/28 06:51:12;;;;;;;2.73;2.17;;;;;;;;;;5069749;28;20205;-28
2023/07/28 06:53:53;;;;;;;4.47;2.13;;;;;;;;;;5081271;28;20209;-26
2023/07/28 06:56:22;;;;;;;4.10;2.50;;;;;;;;;;5075590;28;20225;-28
2023/07/28 06:58:49;;;;;;;4.33;2.60;;;;;;;;;;5072300;28;20225;-28
2023/07/28 07:01:16;;;;;;;3.07;2.30;;;;;;;;;;5080166;28;20206;-29
2023/07/28 07:03:43;;;;;;;2.70;2.50;;;;;;;;;;5072768;28;20568;-27
2023/07/28 07:06:11;;;;;;;3.30;1.87;;;;;;;;;;5064105;28;20233;-28
2023/07/28 07:08:38;;;;;;;4.03;2.33;;;;;;;;;;5080038;28;20312;-28
2023/07/28 07:11:06;;;;;;;2.63;2.30;;;;;;;;;;5070454;28;20328;-30
2023/07/28 07:13:35;;;;;;;3.40;2.40;;;;;;;;;;5056468;28;20210;-30
2023/07/28 07:16:02;;;;;;;3.10;2.00;;;;;;;;;;5079060;28;20216;-26
2023/07/28 07:18:29;;;;;;;7.33;2.40;;;;;;;;;;5072239;28;20231;-26
2023/07/28 07:20:56;;;;;;;2.73;2.20;;;;;;;;;;5066728;28;20204;-28
2023/07/28 07:23:23;;;;;;;3.67;2.57;;;;;;;;;;5067234;28;20288;-28
2023/07/28 07:25:51;;;;;;;4.17;2.50;;;;;;;;;;5088372;28;20239;-33
2023/07/28 07:28:19;;;;;;;3.17;2.50;;;;;;;;;;5061855;28;20215;-31
2023/07/28 07:30:48;;;;;;;3.70;2.73;;;;;;;;;;5076562;28;20205;-28
2023/07/28 07:33:15;;;;;;;2.37;2.10;;;;;;;;;;5057242;28;20206;-26
2023/07/28 07:35:42;;;;;;;2.30;2.10;;;;;;;;;;5056563;28;20293;-26
2023/07/28 07:38:10;;;;;;;3.90;2.47;;;;;;;;;;5079643;28;20203;-31
2023/07/28 07:40:36;;;;;;;5.83;2.47;;;;;;;;;;5073080;28;20558;-30
2023/07/28 07:43:04;;;;;;;2.60;2.10;;;;;;;;;;5056707;28;20241;-27
2023/07/28 07:45:31;;;;;;;4.37;2.87;;;;;;;;;;5067748;28;20209;-27
2023/07/28 07:47:59;;;;;;;4.67;2.90;;;;;;;;;;5094236;28;20237;-30
2023/07/28 07:50:26;;;;;;;2.30;2.10;;;;;;;;;;5096282;28;20226;-28
2023/07/28 07:52:53;;;;;;;2.60;2.40;;;;;;;;;;5062848;28;20650;-28
2023/07/28 07:55:21;;;;;;;3.53;3.00;;;;;;;;;;5084488;28;20221;-29
2023/07/28 07:57:48;;;;;;;9.80;3.20;;;;;;;;;;5068324;28;20205;-30
2023/07/28 08:00:15;;;;;;;3.77;2.60;;;;;;;;;;5076794;28;20258;-28
2023/07/28 08:02:43;;;;;;;4.27;2.83;;;;;;;;;;5092340;28;20616;-30
2023/07/28 08:05:11;;;;;;;3.67;2.83;;;;;;;;;;5096755;28;20197;-26
2023/07/28 08:07:39;;;;;;;2.73;2.50;;;;;;;;;;5075429;28;20233;-29
2023/07/28 08:10:13;;;;;;;3.80;3.00;;;;;;;;;;5083689;28;20217;-27
2023/07/28 08:12:47;;;;;;;3.27;2.80;;;;;;;;;;5067521;28;20216;-29
2023/07/28 08:15:15;;;;;;;2.63;2.37;;;;;;;;;;5064429;28;20278;-29
2023/07/28 08:17:47;;;;;;;2.73;2.50;;;;;;;;;;5079580;28;20231;-30
2023/07/28 08:20:17;;;;;;;4.53;3.27;;;;;;;;;;5066052;28;20233;-30
2023/07/28 08:22:52;;;;;;;4.20;3.47;;;;;;;;;;5073981;28;20216;-30
2023/07/28 08:25:22;;;;;;;4.93;3.53;;;;;;;;;;5069362;28;20220;-29
2023/07/28 08:27:49;;;;;;;6.87;4.47;;;;;;;;;;5062651;28;20206;-27
2023/07/28 08:30:17;;;;;;;5.03;2.73;;;;;;;;;;5078123;28;20288;-26
2023/07/28 08:33:02;;;;;;;4.40;2.90;;;;;;;;;;5078855;28;20209;-28
2023/07/28 08:35:32;;;;;;;3.30;3.00;;;;;;;;;;5075907;28;20588;-28
2023/07/28 08:37:59;;;;;;;4.23;3.43;;;;;;;;;;5073491;28;20570;-30
2023/07/28 08:40:37;;;;;;;4.27;3.63;;;;;;;;;;5080542;28;20224;-30
2023/07/28 08:45:55;;;;;;;5.63;3.33;;;;;;;;;;5078753;28;20202;-29
2023/07/28 08:48:24;;;;;;;6.00;3.60;;;;;;;;;;5095307;28;20295;-29
2023/07/28 08:51:16;;;;;;;3.50;3.20;;;;;;;;;;5070534;28;20210;-29
2023/07/28 08:53:47;;;;;;;3.87;3.07;;;;;;;;;;5079923;28;20225;-26
2023/07/28 08:56:14;;;;;;;3.40;3.00;;;;;;;;;;5068722;28;20241;-27
2023/07/28 08:58:41;;;;;;;6.17;3.80;;;;;;;;;;5069883;28;20233;-31
2023/07/28 09:01:09;;;;;;;4.27;3.87;;;;;;;;;;5072715;28;20213;-27
2023/07/28 09:03:40;;;;;;;5.33;3.67;;;;;;;;;;5074914;28;20205;-29
2023/07/28 09:06:14;;;;;;;4.53;3.90;;;;;;;;;;5066436;28;20228;-29
2023/07/28 09:08:41;;;;;;;4.07;3.50;;;;;;;;;;5064757;28;20233;-28
2023/07/28 09:11:10;;;;;;;6.50;3.83;;;;;;;;;;5081117;28;20239;-27
2023/07/28 09:13:41;;;;;;;4.40;3.10;;;;;;;;;;5064428;28;20294;-30
2023/07/28 09:16:24;;;;;;;3.10;2.80;;;;;;;;;;5073797;28;20215;-29
2023/07/28 09:18:52;;;;;;;3.20;2.87;;;;;;;;;;5075187;28;20284;-29
2023/07/28 09:21:28;;;;;;;4.97;2.80;;;;;;;;;;5073688;28;20233;-30
2023/07/28 09:23:56;;;;;;;3.00;2.80;;;;;;;;;;5069642;28;20213;-28
2023/07/28 09:26:42;;;;;;;2.50;2.27;;;;;;;;;;5069742;28;20215;-31
2023/07/28 09:29:20;;;;;;;3.20;2.80;;;;;;;;;;5079447;28;20219;-31
2023/07/28 09:31:50;;;;;;;7.10;2.93;;;;;;;;;;5093646;28;20253;-28
2023/07/28 09:34:28;;;;;;;3.50;2.63;;;;;;;;;;5094076;28;20215;-29
2023/07/28 09:37:03;;;;;;;5.93;3.33;;;;;;;;;;5063045;28;20228;-29
2023/07/28 09:39:31;;;;;;;2.93;2.33;;;;;;;;;;5056755;28;20264;-30
2023/07/28 09:42:01;;;;;;;2.83;2.53;;;;;;;;;;5063579;28;20205;-29
2023/07/28 09:44:29;;;;;;;2.87;2.33;;;;;;;;;;5075672;28;20238;-28
2023/07/28 09:47:01;;;;;;;5.33;2.90;;;;;;;;;;5075117;28;20205;-30
2023/07/28 09:49:30;;;;;;;2.60;2.40;;;;;;;;;;5074055;28;20228;-29
2023/07/28 09:51:59;;;;;;;5.60;2.43;;;;;;;;;;5073545;28;20239;-31
2023/07/28 09:54:29;;;;;;;5.83;2.53;;;;;;;;;;5076006;28;20211;-27
2023/07/28 09:57:06;;;;;;;4.73;2.70;;;;;;;;;;5064620;28;20225;-29
2023/07/28 09:59:39;;;;;;;2.87;2.10;;;;;;;;;;5061667;28;20327;-31
2023/07/28 10:02:08;;;;;;;5.03;2.37;;;;;;;;;;5081830;28;20211;-30
2023/07/28 10:04:35;;;;;;;4.17;2.13;;;;;;;;;;5074057;28;20212;-28
2023/07/28 10:07:10;;;;;;;3.23;2.50;;;;;;;;;;5066966;28;20239;-32
2023/07/28 10:09:42;;;;;;;2.40;2.20;;;;;;;;;;5067121;28;20284;-28
2023/07/28 10:12:22;;;;;;;3.07;2.30;;;;;;;;;;5073925;28;20208;-28
2023/07/28 10:15:04;;;;;;;5.93;2.70;;;;;;;;;;5073597;28;20201;-30
2023/07/28 10:17:47;;;;;;;4.60;2.57;;;;;;;;;;5086453;28;20375;-27
2023/07/28 10:20:38;;;;;;;3.43;2.40;;;;;;;;;;5069491;28;20318;-30
2023/07/28 10:23:11;;;;;;;4.23;2.13;;;;;;;;;;5066986;28;20748;-30
2023/07/28 10:25:48;;;;;;;2.50;2.30;;;;;;;;;;5093508;28;20215;-27
2023/07/28 10:28:32;;;;;;;2.33;1.97;;;;;;;;;;5065858;28;20207;-29
2023/07/28 10:31:08;;;;;;;2.87;2.00;;;;;;;;;;5081488;28;20207;-27
2023/07/28 10:33:40;;;;;;;2.90;2.17;;;;;;;;;;5073310;28;20211;-27
2023/07/28 10:36:17;;;;;;;5.10;2.87;;;;;;;;;;5069807;28;20292;-27
2023/07/28 10:38:46;;;;;;;2.37;2.17;;;;;;;;;;5052945;28;20402;-31
2023/07/28 10:41:23;;;;;;;2.43;2.23;;;;;;;;;;5079221;28;20271;-27
2023/07/28 10:43:55;;;;;;;5.20;2.13;;;;;;;;;;5062804;28;20235;-30
2023/07/28 10:46:24;;;;;;;4.97;2.47;;;;;;;;;;5092490;28;20206;-30
2023/07/28 10:48:59;;;;;;;1.87;1.70;;;;;;;;;;5075337;28;20323;-28
2023/07/28 10:51:32;;;;;;;3.27;2.03;;;;;;;;;;5067100;28;20222;-27
2023/07/28 10:54:02;;;;;;;2.40;2.00;;;;;;;;;;5074732;28;20238;-28
2023/07/28 10:56:30;;;;;;;2.10;1.80;;;;;;;;;;5069369;28;20235;-28
2023/07/28 10:59:06;;;;;;;2.90;2.00;;;;;;;;;;5063521;28;20227;-30
2023/07/28 11:01:34;;;;;;;2.00;1.80;;;;;;;;;;5072146;28;20216;-29
2023/07/28 11:04:08;;;;;;;2.40;2.20;;;;;;;;;;5072926;28;20233;-28
2023/07/28 11:06:35;;;;;;;2.60;2.07;;;;;;;;;;5067644;28;20208;-27
2023/07/28 11:09:12;;;;;;;4.23;2.87;;;;;;;;;;5082795;28;20233;-29
2023/07/28 11:11:40;;;;;;;3.37;2.00;;;;;;;;;;5082841;28;20270;-30
2023/07/28 11:14:10;;;;;;;2.00;1.50;;;;;;;;;;5063960;28;20204;-31
2023/07/28 11:16:38;;;;;;;1.63;1.53;;;;;;;;;;5083589;28;20309;-27
2023/07/28 11:19:10;;;;;;;2.20;1.60;;;;;;;;;;5072613;28;20250;-31
2023/07/28 11:21:39;;;;;;;1.67;1.57;;;;;;;;;;5066692;28;20237;-28
2023/07/28 11:24:09;;;;;;;1.80;1.70;;;;;;;;;;5070045;28;20508;-29
2023/07/28 11:26:37;;;;;;;1.70;1.60;;;;;;;;;;5083079;28;20212;-28
2023/07/28 11:29:05;;;;;;;2.20;1.80;;;;;;;;;;5076223;28;20290;-28
2023/07/28 11:31:41;;;;;;;3.00;1.50;;;;;;;;;;5091457;28;20212;-30
2023/07/28 11:34:15;;;;;;;1.57;1.47;;;;;;;;;;5087052;28;20254;-30
2023/07/28 11:36:43;;;;;;;1.70;1.60;;;;;;;;;;5091149;28;20222;-27
2023/07/28 11:39:12;;;;;;;1.70;1.60;;;;;;;;;;5080164;28;20229;-30
2023/07/28 11:41:40;;;;;;;2.33;1.33;;;;;;;;;;5086271;28;20216;-30
2023/07/28 11:44:11;;;;;;;1.97;1.83;;;;;;;;;;5072195;28;20201;-30
2023/07/28 11:46:40;;;;;;;1.80;1.70;;;;;;;;;;5095838;28;20204;-30
2023/07/28 11:49:13;;;;;;;1.63;1.53;;;;;;;;;;5076195;28;20232;-28
2023/07/28 11:51:45;;;;;;;1.80;1.57;;;;;;;;;;5081052;28;20269;-30
2023/07/28 11:54:21;;;;;;;1.43;1.20;;;;;;;;;;5076239;28;20212;-28
2023/07/28 11:56:49;;;;;;;1.63;1.53;;;;;;;;;;5067069;28;20252;-29
2023/07/28 11:59:17;;;;;;;1.53;1.40;;;;;;;;;;5065351;28;20226;-29
2023/07/28 12:01:58;;;;;;;1.97;1.60;;;;;;;;;;5146129;22;20269;-28
2023/07/28 12:04:26;;;;;;;3.00;1.77;;;;;;;;;;5032921;28;20217;-28
2023/07/28 12:07:06;;;;;;;1.50;1.40;;;;;;;;;;5028757;28;20205;-30
2023/07/28 12:09:33;;;;;;;1.80;1.70;;;;;;;;;;5047314;28;20233;-29
2023/07/28 12:12:00;;;;;;;1.40;1.30;;;;;;;;;;5048740;28;20217;-27
2023/07/28 12:14:34;;;;;;;2.27;1.43;;;;;;;;;;5055630;28;20210;-30
2023/07/28 12:17:02;;;;;;;1.60;1.50;;;;;;;;;;5054327;28;20222;-27
2023/07/28 12:19:30;;;;;;;1.90;1.53;;;;;;;;;;5055420;28;20241;-30
2023/07/28 12:21:58;;;;;;;2.10;1.30;;;;;;;;;;5046158;28;20283;-29
2023/07/28 12:24:26;;;;;;;2.63;1.67;;;;;;;;;;5054866;28;20220;-29
2023/07/28 12:26:56;;;;;;;2.07;1.87;;;;;;;;;;5046323;28;20236;-30
2023/07/28 12:29:26;;;;;;;4.73;1.80;;;;;;;;;;5048453;28;20235;-30
2023/07/28 12:31:55;;;;;;;3.77;1.90;;;;;;;;;;5053823;28;20213;-29
2023/07/28 12:34:25;;;;;;;7.50;2.27;;;;;;;;;;5051708;28;20304;-30
2023/07/28 12:36:52;;;;;;;3.80;1.93;;;;;;;;;;5045940;28;20257;-28
2023/07/28 12:39:26;;;;;;;2.30;2.10;;;;;;;;;;5055614;28;20346;-29
2023/07/28 12:41:54;;;;;;;3.13;2.60;;;;;;;;;;5049379;28;20237;-29
2023/07/28 12:44:27;;;;;;;4.60;2.93;;;;;;;;;;5042470;28;20262;-31
2023/07/28 12:47:21;;;;;;;3.60;1.80;;;;;;;;;;5055430;28;20561;-29
2023/07/28 12:50:11;;;;;;;2.27;2.10;;;;;;;;;;5054224;28;20254;-32
2023/07/28 12:53:12;;;;;;;3.43;2.20;;;;;;;;;;5048180;28;20212;-31
2023/07/28 12:56:01;;;;;;;2.73;2.03;;;;;;;;;;5051848;28;20204;-30
2023/07/28 12:58:40;;;;;;;2.20;2.10;;;;;;;;;;5049405;28;20227;-29
2023/07/28 13:01:36;;;;;;;2.60;2.40;;;;;;;;;;5054760;28;20215;-29
2023/07/28 13:04:13;;;;;;;3.50;2.23;;;;;;;;;;5054935;28;20293;-29
2023/07/28 13:06:54;;;;;;;3.20;2.40;;;;;;;;;;5046913;28;20235;-29
2023/07/28 13:09:26;;;;;;;5.20;2.50;;;;;;;;;;5048294;28;20238;-30
2023/07/28 13:14:44;;;;;;;3.37;2.70;;;;;;;;;;5052966;23;20723;-27
2023/07/28 13:20:20;;;;;;;2.67;2.30;;;;;;;;;;5010866;28;20228;-28
2023/07/28 13:22:57;;;;;;;2.17;1.97;;;;;;;;;;5024642;28;20334;-29
2023/07/28 13:25:44;;;;;;;2.60;2.40;;;;;;;;;;5035096;28;20204;-30
2023/07/28 13:28:27;;;;;;;3.20;2.30;;;;;;;;;;5017064;28;20286;-30
2023/07/28 13:31:00;;;;;;;2.73;2.40;;;;;;;;;;5032191;28;20299;-28
2023/07/28 13:33:32;;;;;;;3.93;2.10;;;;;;;;;;5034068;28;20220;-30
2023/07/28 13:36:07;;;;;;;2.73;2.50;;;;;;;;;;5018050;28;20273;-27
2023/07/28 13:38:44;;;;;;;2.37;2.17;;;;;;;;;;5034441;28;20235;-27
2023/07/28 13:41:13;;;;;;;3.07;2.43;;;;;;;;;;5032574;28;20220;-31
2023/07/28 13:43:42;;;;;;;3.87;2.17;;;;;;;;;;5029635;28;20270;-30
2023/07/28 13:46:20;;;;;;;3.73;2.30;;;;;;;;;;5019106;28;20214;-29
2023/07/28 13:48:54;;;;;;;2.93;2.30;;;;;;;;;;5035237;28;20291;-30
2023/07/28 13:51:26;;;;;;;2.60;2.40;;;;;;;;;;5027958;28;20244;-29
2023/07/28 13:54:06;;;;;;;3.20;2.50;;;;;;;;;;5022711;28;20220;-30
2023/07/28 13:56:34;;;;;;;5.73;2.80;;;;;;;;;;5013434;28;20248;-31
2023/07/28 13:59:01;;;;;;;4.53;2.40;;;;;;;;;;5016462;28;20233;-30
2023/07/28 14:01:36;;;;;;;2.57;2.30;;;;;;;;;;5024831;28;20229;-30
2023/07/28 14:04:25;;;;;;;4.17;2.47;;;;;;;;;;5031870;28;20255;-28
2023/07/28 14:07:01;;;;;;;3.87;2.30;;;;;;;;;;5022406;28;20211;-29
2023/07/28 14:09:34;;;;;;;3.73;2.40;;;;;;;;;;5021977;28;20239;-30
2023/07/28 14:12:31;;;;;;;4.83;2.57;;;;;;;;;;5014817;28;20208;-31
2023/07/28 14:15:13;;;;;;;2.63;2.40;;;;;;;;;;5024419;28;20226;-28
2023/07/28 14:17:43;;;;;;;4.27;2.50;;;;;;;;;;5013612;28;20248;-31
2023/07/28 14:20:10;;;;;;;4.30;2.70;;;;;;;;;;5017117;28;20231;-31
2023/07/28 14:22:39;;;;;;;7.50;2.80;;;;;;;;;;5024293;28;20266;-30
2023/07/28 14:25:09;;;;;;;4.93;2.70;;;;;;;;;;5023155;28;20215;-32
2023/07/28 14:27:36;;;;;;;3.47;2.80;;;;;;;;;;5017981;28;20208;-31
2023/07/28 14:30:09;;;;;;;3.77;2.70;;;;;;;;;;5018558;28;20233;-28
2023/07/28 14:32:41;;;;;;;3.73;2.87;;;;;;;;;;5014036;28;20212;-29
2023/07/28 14:35:10;;;;;;;3.30;2.83;;;;;;;;;;5014057;28;20276;-29
2023/07/28 14:37:37;;;;;;;4.47;3.33;;;;;;;;;;5028736;28;20290;-30
2023/07/28 14:40:09;;;;;;;3.03;2.73;;;;;;;;;;5031517;28;20228;-29
2023/07/28 14:42:38;;;;;;;5.27;2.97;;;;;;;;;;5019069;28;20205;-28
2023/07/28 14:45:06;;;;;;;3.17;2.67;;;;;;;;;;5028192;28;20204;-30
2023/07/28 14:47:34;;;;;;;4.00;3.00;;;;;;;;;;5026900;28;20284;-31
2023/07/28 14:50:01;;;;;;;6.03;3.00;;;;;;;;;;5029186;28;20231;-28
2023/07/28 14:52:28;;;;;;;2.73;2.53;;;;;;;;;;5024636;28;20200;-29
2023/07/28 14:54:55;;;;;;;2.63;2.43;;;;;;;;;;5021928;28;20204;-29
2023/07/28 14:57:26;;;;;;;2.97;2.70;;;;;;;;;;5021890;28;20231;-27
2023/07/28 15:00:00;;;;;;;2.93;2.63;;;;;;;;;;5024848;28;20228;-28
2023/07/28 15:02:33;;;;;;;2.43;2.23;;;;;;;;;;5033495;28;20204;-28
2023/07/28 15:05:11;;;;;;;3.57;2.40;;;;;;;;;;5033489;28;20254;-30
2023/07/28 15:07:46;;;;;;;2.97;2.10;;;;;;;;;;5022444;28;20228;-31
2023/07/28 15:13:04;;;;;;;4.37;1.97;;;;;;;;;;5020151;28;20210;-27
2023/07/28 15:15:53;;;;;;;2.67;1.73;;;;;;;;;;5026486;28;20304;-30
2023/07/28 15:18:47;;;;;;;3.73;2.10;;;;;;;;;;5023213;28;20248;-28
2023/07/28 15:21:27;;;;;;;2.40;2.17;;;;;;;;;;5019790;28;20211;-28
2023/07/28 15:23:59;;;;;;;2.27;2.07;;;;;;;;;;5033810;28;20206;-28
2023/07/28 15:26:39;;;;;;;4.60;2.30;;;;;;;;;;5017862;28;20211;-30
2023/07/28 15:29:27;;;;;;;2.40;2.20;;;;;;;;;;5028181;28;20215;-30
2023/07/28 15:32:09;;;;;;;2.20;2.03;;;;;;;;;;5022741;28;20220;-27
2023/07/28 15:34:53;;;;;;;4.40;2.50;;;;;;;;;;5032950;28;20216;-31
2023/07/28 15:37:32;;;;;;;3.27;2.70;;;;;;;;;;5028646;28;20214;-29
2023/07/28 15:40:33;;;;;;;2.20;2.00;;;;;;;;;;5003816;28;20237;-30
2023/07/28 15:43:12;;;;;;;3.83;1.90;;;;;;;;;;5019843;28;20295;-29
2023/07/28 15:45:52;;;;;;;2.93;1.90;;;;;;;;;;5024916;28;20218;-31
2023/07/28 15:48:29;;;;;;;2.87;2.10;;;;;;;;;;5012975;28;20219;-30
2023/07/28 15:50:58;;;;;;;2.20;2.00;;;;;;;;;;5014410;28;20201;-31
2023/07/28 15:53:37;;;;;;;2.30;2.00;;;;;;;;;;5027014;28;20209;-29
2023/07/28 15:56:22;;;;;;;1.97;1.87;;;;;;;;;;5013453;28;20200;-27
2023/07/28 15:59:04;;;;;;;2.00;1.80;;;;;;;;;;5021394;28;20301;-29
2023/07/28 16:01:47;;;;;;;2.97;2.27;;;;;;;;;;5024713;28;20212;-28
2023/07/28 16:04:47;;;;;;;3.67;1.93;;;;;;;;;;5029693;28;20236;-30
2023/07/28 16:07:40;;;;;;;2.20;2.03;;;;;;;;;;5019041;28;20212;-29
2023/07/28 16:10:25;;;;;;;2.40;2.10;;;;;;;;;;5028305;28;20232;-30
2023/07/28 16:13:11;;;;;;;2.30;2.10;;;;;;;;;;5033506;28;20207;-28
2023/07/28 16:16:03;;;;;;;;;;;;;;;;;;;;;
2023/07/28 16:18:43;;;;;;;2.13;2.00;;;;;;;;;;5015970;28;20233;-28
2023/07/28 16:21:36;;;;;;;2.60;2.40;;;;;;;;;;5024385;28;20205;-30
2023/07/28 16:24:11;;;;;;;2.50;2.20;;;;;;;;;;5035638;28;20269;-32
2023/07/28 16:26:44;;;;;;;2.13;1.93;;;;;;;;;;5030587;28;20207;-32